Forside
METAR-TAF:

METAR-TAF

Lufthavne :

Rzeszów, Polen

Breddekreds: 50-06N, længdekreds: 022-03E, højde: 200 m

Aktuelle vejr

Denne rapport blev lavet for 38 minutter siden, kl. 00:30 UTC
Vind 3 kt fra vest
Temperatur 1°C
Fugtighed 86%
Tryk 1023 hPa
Sigt 10 km eller mere
Overskyet i en højde af 4000 ft

METAR: EPRZ 110030Z 28003KT 9999 OVC040 01/M01 Q1023

Tid: 02:08 (01:08 UTC)

Vejrudsigter

Denne rapport blev lavet for 1 time og 38 minutter siden, kl. 23:30 UTC
Foreløbig gælder fra 11 på 00 UTC til 11 på 24 UTC
Vind 5 kt fra nordvest
Sigt 10 km eller mere
Overskyet i en højde af 4000 ft
Midlertidig
fra 11 på 00 UTC til 11 på 09 UTC
Brudte skyer i en højde af 1000 ft
Sandsynlighed 30% :
Midlertidig
fra 11 på 00 UTC til 11 på 09 UTC
Sigt: 4000 m
Brudte skyer i en højde af 800 ft
dis
ændring
fra 11 på 21 UTC til 11 på 24 UTC
Sigt: 3000 m
dis

TAF: EPRZ 102330Z 1100/1124 31005KT 9999 OVC040 TEMPO 1100/1109 BKN010 PROB30 TEMPO 1100/1109 4000 BR BKN008 BECMG 1121/1124 3000 BR

Vejrobservationer og prognoser fra mere end 4000 lufthavne (METAR og TAF).

De gule og røde prikker repræsenterer de meteorologiske stationer.

Flyt musen over at se navnet på stationen.

Så klik over at se vejr observationer og prognoser.

At skifte det kort: Klik på de grønne knapper med et sort kors for at zoome ind; på den grønne knap med en bindestreg for at zoome ud; eller på de grønne pile for tilstødende kort.


METAR-TAF: